createdAt,value
2024-02-22T00:02:18.716Z,5.72
2024-02-22T00:04:54.056Z,6.60
2024-02-22T00:07:26.943Z,6.63
2024-02-22T00:10:01.748Z,6.03
2024-02-22T00:12:38.871Z,6.78
2024-02-22T00:15:14.992Z,5.70
2024-02-22T00:17:48.076Z,7.55
2024-02-22T00:20:21.612Z,5.80
2024-02-22T00:22:54.439Z,7.03
2024-02-22T00:25:31.560Z,5.95
2024-02-22T00:28:04.823Z,5.57
2024-02-22T00:30:37.599Z,7.03
2024-02-22T00:33:11.741Z,6.82
2024-02-22T00:35:44.700Z,7.15
2024-02-22T00:38:17.632Z,6.55
2024-02-22T00:40:50.617Z,6.60
2024-02-22T00:43:23.654Z,5.93
2024-02-22T00:45:56.720Z,6.20
2024-02-22T00:48:29.662Z,6.25
2024-02-22T00:51:03.151Z,6.22
2024-02-22T00:53:36.109Z,5.75
2024-02-22T00:56:10.273Z,5.95
2024-02-22T00:58:44.108Z,6.00
2024-02-22T01:01:30.499Z,6.90
2024-02-22T01:04:03.630Z,6.03
2024-02-22T01:06:36.625Z,5.60
2024-02-22T01:09:11.592Z,5.45
2024-02-22T01:11:44.540Z,5.13
2024-02-22T01:14:18.437Z,5.85
2024-02-22T01:16:51.530Z,6.18
2024-02-22T01:19:29.878Z,6.78
2024-02-22T01:22:03.791Z,5.95
2024-02-22T01:24:36.628Z,5.45
2024-02-22T01:27:09.455Z,5.50
2024-02-22T01:29:50.370Z,4.63
2024-02-22T01:32:23.293Z,4.93
2024-02-22T01:34:56.157Z,5.28
2024-02-22T01:37:28.964Z,4.90
2024-02-22T01:40:01.726Z,5.90
2024-02-22T01:42:34.584Z,5.45
2024-02-22T01:45:07.945Z,6.07
2024-02-22T01:47:41.966Z,5.78
2024-02-22T01:50:17.972Z,5.35
2024-02-22T01:52:51.801Z,5.03
2024-02-22T01:55:26.356Z,6.43
2024-02-22T02:00:34.470Z,6.35
2024-02-22T02:03:13.630Z,7.77
2024-02-22T02:05:46.572Z,6.22
2024-02-22T02:08:19.571Z,5.70
2024-02-22T02:11:00.040Z,6.13
2024-02-22T02:13:33.220Z,6.22
2024-02-22T02:16:06.946Z,5.53
2024-02-22T02:18:41.441Z,7.23
2024-02-22T02:24:14.897Z,5.97
2024-02-22T02:26:47.690Z,5.57
2024-02-22T02:29:21.334Z,6.70
2024-02-22T02:32:14.013Z,8.27
2024-02-22T02:34:46.930Z,7.13
2024-02-22T02:37:19.700Z,6.10
2024-02-22T02:39:54.215Z,7.38
2024-02-22T02:42:27.043Z,6.25
2024-02-22T02:44:59.965Z,7.53
2024-02-22T02:47:32.809Z,6.50
2024-02-22T02:50:08.308Z,7.95
2024-02-22T02:52:41.228Z,6.82
2024-02-22T02:55:15.334Z,6.35
2024-02-22T02:57:48.189Z,7.47
2024-02-22T03:00:21.510Z,6.55
2024-02-22T03:03:00.765Z,8.68
2024-02-22T03:05:33.922Z,7.53
2024-02-22T03:08:07.594Z,9.25
2024-02-22T03:10:59.041Z,8.82
2024-02-22T03:13:32.061Z,7.57
2024-02-22T03:16:06.100Z,7.95
2024-02-22T03:18:39.632Z,8.18
2024-02-22T03:21:12.399Z,8.02
2024-02-22T03:23:46.350Z,9.50
2024-02-22T03:26:19.125Z,9.38
2024-02-22T03:28:55.501Z,9.20
2024-02-22T03:31:29.861Z,8.52
2024-02-22T03:34:04.209Z,8.95
2024-02-22T03:36:37.762Z,8.55
2024-02-22T03:39:13.029Z,6.90
2024-02-22T03:41:46.671Z,8.60
2024-02-22T03:44:19.578Z,11.40
2024-02-22T03:46:54.659Z,8.77
2024-02-22T03:49:28.184Z,10.43
2024-02-22T03:52:00.984Z,8.77
2024-02-22T03:54:35.532Z,6.75
2024-02-22T03:59:41.119Z,8.48
2024-02-22T04:02:14.066Z,10.18
2024-02-22T04:04:52.358Z,9.48
2024-02-22T04:07:25.631Z,9.98
2024-02-22T04:09:58.451Z,9.88
2024-02-22T04:12:31.174Z,12.13
2024-02-22T04:15:04.835Z,11.00
2024-02-22T04:17:38.723Z,10.00
2024-02-22T04:20:11.759Z,11.77
2024-02-22T04:22:50.116Z,10.18
2024-02-22T04:25:23.234Z,13.57
2024-02-22T04:28:16.953Z,5.88
2024-02-22T04:30:49.760Z,9.88
2024-02-22T04:33:22.668Z,10.52
2024-02-22T04:35:55.565Z,11.35
2024-02-22T04:38:28.751Z,9.43
2024-02-22T04:41:01.796Z,8.98
2024-02-22T04:43:34.757Z,10.20
2024-02-22T04:46:08.147Z,9.70
2024-02-22T04:48:41.083Z,9.70
2024-02-22T04:51:13.884Z,10.30
2024-02-22T04:53:46.614Z,9.30
2024-02-22T04:56:20.055Z,9.38
2024-02-22T04:58:52.825Z,7.22
2024-02-22T05:01:30.406Z,8.82
2024-02-22T05:04:03.400Z,9.10
2024-02-22T05:06:37.662Z,8.35
2024-02-22T05:09:14.996Z,11.90
2024-02-22T05:11:53.091Z,11.23
2024-02-22T05:14:26.035Z,8.80
2024-02-22T05:16:58.774Z,9.52
2024-02-22T05:19:37.372Z,10.65
2024-02-22T05:22:10.201Z,9.45
2024-02-22T05:24:43.551Z,8.35
2024-02-22T05:27:16.444Z,8.73
2024-02-22T05:29:51.136Z,13.02
2024-02-22T05:32:25.443Z,11.60
2024-02-22T05:34:59.008Z,9.55
2024-02-22T05:37:35.419Z,10.40
2024-02-22T05:40:09.698Z,12.63
2024-02-22T05:42:43.501Z,10.57
2024-02-22T05:45:39.113Z,9.25
2024-02-22T05:48:12.830Z,10.00
2024-02-22T05:50:49.312Z,9.98
2024-02-22T05:53:22.929Z,14.18
2024-02-22T05:55:55.802Z,10.57
2024-02-22T05:58:28.614Z,11.63
2024-02-22T06:01:01.527Z,11.40
2024-02-22T06:03:34.495Z,10.82
2024-02-22T06:06:07.704Z,12.52
2024-02-22T06:08:43.672Z,10.05
2024-02-22T06:11:18.696Z,11.80
2024-02-22T06:13:51.646Z,11.75
2024-02-22T06:16:26.581Z,11.43
2024-02-22T06:18:59.569Z,10.82
2024-02-22T06:21:32.771Z,11.82
2024-02-22T06:24:05.912Z,10.32
2024-02-22T06:26:39.286Z,11.60
2024-02-22T06:29:12.290Z,12.15
2024-02-22T06:31:54.432Z,10.98
2024-02-22T06:34:27.739Z,12.00
2024-02-22T06:37:00.469Z,10.73
2024-02-22T06:39:33.288Z,9.98
2024-02-22T06:42:06.491Z,13.57
2024-02-22T06:44:48.248Z,11.82
2024-02-22T06:47:20.976Z,12.45
2024-02-22T06:49:54.276Z,12.25
2024-02-22T06:52:27.067Z,10.68
2024-02-22T06:54:59.765Z,10.00
2024-02-22T06:57:32.482Z,10.32
2024-02-22T07:00:10.685Z,10.52
2024-02-22T07:02:55.957Z,11.27
2024-02-22T07:05:28.805Z,11.40
2024-02-22T07:08:02.112Z,9.77
2024-02-22T07:10:35.084Z,10.40
2024-02-22T07:13:10.085Z,10.40
2024-02-22T07:15:43.023Z,8.18
2024-02-22T07:18:15.815Z,10.95
2024-02-22T07:20:48.625Z,10.93
2024-02-22T07:23:22.902Z,10.43
2024-02-22T07:25:55.672Z,9.85
2024-02-22T07:28:28.487Z,9.18
2024-02-22T07:31:01.227Z,9.52
2024-02-22T07:33:34.440Z,7.35
2024-02-22T07:36:10.499Z,8.55
2024-02-22T07:38:44.218Z,8.88
2024-02-22T07:41:17.600Z,7.82
2024-02-22T07:43:51.279Z,8.70
2024-02-22T07:46:24.241Z,7.60
2024-02-22T07:48:57.110Z,7.43
2024-02-22T07:51:33.100Z,7.65
2024-02-22T07:54:06.109Z,7.20
2024-02-22T07:56:40.377Z,6.70
2024-02-22T07:59:14.893Z,6.70
2024-02-22T08:04:21.235Z,7.05
2024-02-22T08:06:54.950Z,6.65
2024-02-22T08:09:28.232Z,5.90
2024-02-22T08:12:01.051Z,5.70
2024-02-22T08:14:43.697Z,7.10
2024-02-22T08:17:19.333Z,5.10
2024-02-22T08:19:53.419Z,5.05
2024-02-22T08:22:26.133Z,4.40
2024-02-22T08:24:58.868Z,4.93
2024-02-22T08:27:31.864Z,4.55
2024-02-22T08:30:05.315Z,3.42
2024-02-22T08:32:38.730Z,3.53
2024-02-22T08:35:11.557Z,3.40
2024-02-22T08:37:44.488Z,3.80
2024-02-22T08:40:30.166Z,4.55
2024-02-22T08:43:09.948Z,2.90
2024-02-22T08:45:42.903Z,2.25
2024-02-22T08:48:18.782Z,2.85
2024-02-22T08:50:51.920Z,2.20
2024-02-22T08:53:25.652Z,2.00
2024-02-22T08:55:59.305Z,2.40
2024-02-22T08:58:33.461Z,3.20
2024-02-22T09:01:07.193Z,4.22
2024-02-22T09:03:40.005Z,2.40
2024-02-22T09:06:12.833Z,2.92
2024-02-22T09:08:45.621Z,2.53
2024-02-22T09:11:18.453Z,2.20
2024-02-22T09:13:51.222Z,2.35
2024-02-22T09:16:23.925Z,2.63
2024-02-22T09:18:56.674Z,3.10
2024-02-22T09:21:31.546Z,2.22
2024-02-22T09:24:06.017Z,2.55
2024-02-22T09:26:38.677Z,1.88
2024-02-22T09:29:11.495Z,1.42
2024-02-22T09:31:44.256Z,1.95
2024-02-22T09:34:17.314Z,2.90
2024-02-22T09:36:50.003Z,2.70
2024-02-22T09:39:22.746Z,2.55
2024-02-22T09:41:58.537Z,3.72
2024-02-22T09:44:34.014Z,3.40
2024-02-22T09:47:09.473Z,2.95
2024-02-22T09:49:43.877Z,2.28
2024-02-22T09:52:20.734Z,2.30
2024-02-22T09:54:53.624Z,3.08
2024-02-22T09:57:26.555Z,2.28
2024-02-22T10:00:01.117Z,2.50
2024-02-22T10:05:09.252Z,2.15
2024-02-22T10:10:26.706Z,2.10
2024-02-22T10:13:00.373Z,1.70
2024-02-22T10:15:34.934Z,2.15
2024-02-22T10:18:07.680Z,2.17
2024-02-22T10:20:44.043Z,2.13
2024-02-22T10:23:19.792Z,1.70
2024-02-22T10:26:03.654Z,1.70
2024-02-22T10:28:37.139Z,2.22
2024-02-22T10:31:11.258Z,1.60
2024-02-22T10:33:44.264Z,2.50
2024-02-22T10:36:19.360Z,1.65
2024-02-22T10:38:52.757Z,1.60
2024-02-22T10:41:26.711Z,1.83
2024-02-22T10:44:03.022Z,2.22
2024-02-22T10:46:39.678Z,2.05
2024-02-22T10:49:18.396Z,1.23
2024-02-22T10:51:53.788Z,2.20
2024-02-22T10:54:32.450Z,1.23
2024-02-22T10:57:14.792Z,1.23
2024-02-22T10:59:55.408Z,1.42
2024-02-22T11:02:29.586Z,1.58
2024-02-22T11:05:04.370Z,1.00
2024-02-22T11:07:52.564Z,1.55
2024-02-22T11:10:25.674Z,0.73
2024-02-22T11:13:05.448Z,1.55
2024-02-22T11:15:38.799Z,1.27
2024-02-22T11:18:11.674Z,1.40
2024-02-22T11:20:54.040Z,0.95
2024-02-22T11:23:35.636Z,1.77
2024-02-22T11:26:08.666Z,1.42
2024-02-22T11:28:41.456Z,0.75
2024-02-22T11:31:15.328Z,0.98
2024-02-22T11:33:48.757Z,1.10
2024-02-22T11:36:21.998Z,1.92
2024-02-22T11:39:02.713Z,2.08
2024-02-22T11:41:35.505Z,0.95
2024-02-22T11:44:09.341Z,0.73
2024-02-22T11:46:43.855Z,1.30
2024-02-22T11:49:19.480Z,0.88
2024-02-22T11:51:52.340Z,0.90
2024-02-22T11:54:25.800Z,0.60
2024-02-22T11:56:59.942Z,1.05
2024-02-22T11:59:33.556Z,1.05
2024-02-22T12:02:08.264Z,1.50
2024-02-22T12:04:42.624Z,1.13
2024-02-22T12:09:50.498Z,0.90
2024-02-22T12:12:32.876Z,1.08
2024-02-22T12:15:06.285Z,1.80
2024-02-22T12:17:39.458Z,0.93
2024-02-22T12:20:16.853Z,0.80
2024-02-22T12:22:52.889Z,2.22
2024-02-22T12:25:27.168Z,2.08
2024-02-22T12:28:06.914Z,1.27
2024-02-22T12:30:42.557Z,1.13
2024-02-22T12:33:30.679Z,1.00
2024-02-22T12:36:08.391Z,1.60
2024-02-22T12:38:41.161Z,1.38
2024-02-22T12:41:17.194Z,0.80
2024-02-22T12:43:51.043Z,1.15
2024-02-22T12:46:24.131Z,0.80
2024-02-22T12:48:57.193Z,1.40
2024-02-22T12:51:30.389Z,1.10
2024-02-22T12:54:04.659Z,1.40
2024-02-22T12:56:37.724Z,1.00
2024-02-22T12:59:10.714Z,0.57
2024-02-22T13:01:45.565Z,0.52
2024-02-22T13:04:18.507Z,0.60
2024-02-22T13:06:52.097Z,1.02
2024-02-22T13:09:24.966Z,1.43
2024-02-22T13:11:57.897Z,1.70
2024-02-22T13:14:30.774Z,0.80
2024-02-22T13:17:03.721Z,1.40
2024-02-22T13:19:36.677Z,0.75
2024-02-22T13:22:36.053Z,0.82
2024-02-22T13:27:58.477Z,0.98
2024-02-22T13:30:34.292Z,1.17
2024-02-22T13:33:07.752Z,0.65
2024-02-22T13:35:40.761Z,0.68
2024-02-22T13:38:13.900Z,0.47
2024-02-22T13:40:47.225Z,0.50
2024-02-22T13:43:20.395Z,0.90
2024-02-22T13:45:53.319Z,0.70
2024-02-22T13:48:26.218Z,0.63
2024-02-22T13:50:59.298Z,0.63
2024-02-22T13:53:32.244Z,0.45
2024-02-22T13:56:05.363Z,1.33
2024-02-22T13:58:39.777Z,0.20
2024-02-22T14:03:47.982Z,0.30
2024-02-22T14:06:21.197Z,0.35
2024-02-22T14:08:54.463Z,0.60
2024-02-22T14:11:27.447Z,0.50
2024-02-22T14:14:01.483Z,0.40
2024-02-22T14:16:34.296Z,0.30
2024-02-22T14:19:07.359Z,0.55
2024-02-22T14:21:40.172Z,0.13
2024-02-22T14:24:14.523Z,0.52
2024-02-22T14:26:49.354Z,0.43
2024-02-22T14:29:22.572Z,0.10
2024-02-22T14:31:55.985Z,0.45
2024-02-22T14:34:28.901Z,0.38
2024-02-22T14:37:02.072Z,1.10
2024-02-22T14:39:35.977Z,1.17
2024-02-22T14:42:09.128Z,2.63
2024-02-22T14:44:43.908Z,1.17
2024-02-22T14:47:17.349Z,0.28
2024-02-22T14:49:50.389Z,1.23
2024-02-22T14:52:23.482Z,0.20
2024-02-22T14:54:56.527Z,0.25
2024-02-22T14:57:29.484Z,0.90
2024-02-22T15:00:11.978Z,0.30
2024-02-22T15:02:44.961Z,0.45
2024-02-22T15:05:18.347Z,0.30
2024-02-22T15:07:51.667Z,0.33
2024-02-22T15:10:29.147Z,0.30
2024-02-22T15:13:03.348Z,1.55
2024-02-22T15:15:36.434Z,0.15
2024-02-22T15:18:09.466Z,0.28
2024-02-22T15:20:42.304Z,0.17
2024-02-22T15:23:16.575Z,0.45
2024-02-22T15:25:49.441Z,0.00
2024-02-22T15:28:25.554Z,0.20
2024-02-22T15:31:01.448Z,0.28
2024-02-22T15:33:34.621Z,0.20
2024-02-22T15:36:12.955Z,0.13
2024-02-22T15:38:45.917Z,0.85
2024-02-22T15:41:22.618Z,0.22
2024-02-22T15:43:56.626Z,0.47
2024-02-22T15:46:30.465Z,0.43
2024-02-22T15:49:15.739Z,0.35
2024-02-22T15:51:49.885Z,0.28
2024-02-22T15:54:25.067Z,0.40
2024-02-22T15:56:58.079Z,0.50
2024-02-22T15:59:31.134Z,0.25
2024-02-22T16:02:04.764Z,0.50
2024-02-22T16:04:38.134Z,0.22
2024-02-22T16:07:13.897Z,0.15
2024-02-22T16:09:47.860Z,0.10
2024-02-22T16:12:20.773Z,0.45
2024-02-22T16:14:54.285Z,0.20
2024-02-22T16:17:31.102Z,0.10
2024-02-22T16:20:05.424Z,1.60
2024-02-22T16:22:39.266Z,0.43
2024-02-22T16:25:12.792Z,0.30
2024-02-22T16:27:46.905Z,0.95
2024-02-22T16:30:37.661Z,0.20
2024-02-22T17:48:05.017Z,0.60
2024-02-22T17:57:19.894Z,2.67
2024-02-22T18:00:15.903Z,1.63
2024-02-22T18:06:17.650Z,0.57
2024-02-22T18:09:55.292Z,2.20
2024-02-22T19:08:23.587Z,4.07
2024-02-22T19:11:02.688Z,3.00
2024-02-22T19:14:23.287Z,2.85
2024-02-22T19:20:03.040Z,3.20
2024-02-22T19:22:39.127Z,2.28
2024-02-22T19:25:11.949Z,3.92
2024-02-22T19:27:47.913Z,1.95
2024-02-22T19:34:30.967Z,1.83
2024-02-22T19:37:06.413Z,3.75
2024-02-22T19:39:40.361Z,2.50
2024-02-22T19:42:20.076Z,1.55
2024-02-22T19:44:58.941Z,3.17
2024-02-22T19:47:37.923Z,1.52
2024-02-22T19:50:10.999Z,1.75
2024-02-22T19:52:45.873Z,2.88
2024-02-22T19:55:18.811Z,3.63
2024-02-22T19:57:51.831Z,3.08
2024-02-22T20:00:24.799Z,2.53
2024-02-22T20:02:58.245Z,1.92
2024-02-22T20:05:31.172Z,1.55
2024-02-22T20:08:06.023Z,2.08
2024-02-22T20:10:39.066Z,0.95
2024-02-22T20:13:16.948Z,0.80
2024-02-22T20:15:50.586Z,1.80
2024-02-22T20:18:23.524Z,2.28
2024-02-22T20:21:00.550Z,3.80
2024-02-22T20:23:33.841Z,1.55
2024-02-22T20:26:06.816Z,2.35
2024-02-22T20:28:42.521Z,3.47
2024-02-22T20:31:17.142Z,2.63
2024-02-22T20:37:26.060Z,4.15
2024-02-22T20:39:59.853Z,7.28
2024-02-22T20:42:32.659Z,4.40
2024-02-22T20:45:16.097Z,3.67
2024-02-22T20:47:48.960Z,6.15
2024-02-22T20:53:43.288Z,4.22
2024-02-22T20:56:24.264Z,5.50
2024-02-22T21:02:44.045Z,5.47
2024-02-22T21:05:17.452Z,6.70
2024-02-22T21:07:50.464Z,4.35
2024-02-22T21:11:12.685Z,3.92
2024-02-22T21:13:45.914Z,3.97
2024-02-22T21:16:33.653Z,4.00
2024-02-22T21:19:38.674Z,3.13
2024-02-22T21:22:22.815Z,2.63
2024-02-22T21:24:55.808Z,2.23
2024-02-22T21:27:30.705Z,5.72
2024-02-22T21:30:05.121Z,2.78
2024-02-22T21:32:38.115Z,4.60
2024-02-22T21:35:12.271Z,2.45
2024-02-22T21:37:45.246Z,5.07
2024-02-22T21:40:18.023Z,3.92
2024-02-22T21:42:54.096Z,2.08
2024-02-22T21:45:28.369Z,3.75
2024-02-22T21:48:02.349Z,2.42
2024-02-22T21:50:37.957Z,3.97
2024-02-22T21:53:21.248Z,3.55
